createdAt,value
2018-10-12T00:02:18.503Z,23.77
2018-10-12T00:04:47.109Z,27.77
2018-10-12T00:07:15.457Z,25.60
2018-10-12T00:09:44.273Z,23.13
2018-10-12T00:12:12.808Z,23.27
2018-10-12T00:14:41.157Z,32.40
2018-10-12T00:17:09.988Z,24.50
2018-10-12T00:19:38.594Z,23.37
2018-10-12T00:22:07.594Z,22.97
2018-10-12T00:24:36.485Z,22.17
2018-10-12T00:27:04.845Z,21.77
2018-10-12T00:29:33.448Z,22.00
2018-10-12T00:32:01.899Z,19.30
2018-10-12T00:34:30.256Z,36.30
2018-10-12T00:36:58.551Z,24.57
2018-10-12T00:39:26.886Z,21.53
2018-10-12T00:41:55.621Z,27.60
2018-10-12T00:44:24.461Z,30.63
2018-10-12T00:46:53.097Z,28.63
2018-10-12T00:49:21.563Z,24.53
2018-10-12T00:51:49.884Z,26.03
2018-10-12T00:54:18.222Z,20.40
2018-10-12T00:56:46.583Z,20.63
2018-10-12T00:59:14.914Z,26.40
2018-10-12T01:01:43.754Z,21.53
2018-10-12T01:04:12.268Z,20.37
2018-10-12T01:06:40.665Z,22.73
2018-10-12T01:09:09.228Z,19.63
2018-10-12T01:11:37.577Z,16.87
2018-10-12T01:14:05.899Z,21.23
2018-10-12T01:16:34.374Z,32.13
2018-10-12T01:19:02.697Z,34.80
2018-10-12T01:21:31.431Z,28.20
2018-10-12T01:23:59.758Z,26.00
2018-10-12T01:26:28.429Z,35.10
2018-10-12T01:28:57.817Z,41.50
2018-10-12T01:31:27.331Z,26.97
2018-10-12T01:33:55.690Z,26.80
2018-10-12T01:36:24.027Z,41.70
2018-10-12T01:38:52.881Z,36.40
2018-10-12T01:41:21.267Z,33.43
2018-10-12T01:43:50.462Z,44.50
2018-10-12T01:46:19.236Z,45.30
2018-10-12T01:48:47.554Z,42.60
2018-10-12T01:51:16.355Z,38.00
2018-10-12T01:53:45.333Z,37.77
2018-10-12T01:56:13.855Z,60.97
2018-10-12T01:58:42.242Z,30.33
2018-10-12T02:01:11.061Z,41.20
2018-10-12T02:03:39.470Z,34.43
2018-10-12T02:06:07.843Z,52.27
2018-10-12T02:08:36.611Z,48.27
2018-10-12T02:11:05.104Z,36.13
2018-10-12T02:13:33.439Z,28.17
2018-10-12T02:16:02.215Z,46.43
2018-10-12T02:18:30.620Z,46.70
2018-10-12T02:20:58.939Z,50.10
2018-10-12T02:23:27.498Z,49.17
2018-10-12T02:25:55.984Z,39.87
2018-10-12T02:28:24.308Z,52.67
2018-10-12T02:30:52.960Z,33.17
2018-10-12T02:33:21.272Z,42.30
2018-10-12T02:35:49.609Z,31.83
2018-10-12T02:38:18.791Z,29.73
2018-10-12T02:40:47.141Z,38.53
2018-10-12T02:43:15.754Z,36.03
2018-10-12T02:45:44.756Z,33.00
2018-10-12T02:48:13.061Z,43.40
2018-10-12T02:50:41.619Z,46.83
2018-10-12T02:53:10.352Z,54.63
2018-10-12T02:55:38.730Z,51.23
2018-10-12T02:58:07.348Z,41.13
2018-10-12T03:00:36.091Z,46.17
2018-10-12T03:03:04.573Z,57.97
2018-10-12T03:05:32.911Z,35.93
2018-10-12T03:08:01.708Z,54.43
2018-10-12T03:10:30.091Z,59.10
2018-10-12T03:12:58.396Z,55.93
2018-10-12T03:15:27.280Z,49.53
2018-10-12T03:17:55.640Z,43.80
2018-10-12T03:20:23.956Z,63.00
2018-10-12T03:22:52.611Z,47.80
2018-10-12T03:25:20.989Z,53.33
2018-10-12T03:28:01.205Z,44.70
2018-10-12T03:30:29.578Z,50.23
2018-10-12T03:32:58.106Z,44.10
2018-10-12T03:35:26.585Z,40.10
2018-10-12T03:37:54.964Z,33.73
2018-10-12T03:40:23.640Z,59.90
2018-10-12T03:42:52.349Z,60.70
2018-10-12T03:45:20.672Z,47.33
2018-10-12T03:47:49.455Z,44.57
2018-10-12T03:50:18.402Z,41.90
2018-10-12T03:52:46.975Z,37.00
2018-10-12T03:55:15.458Z,42.00
2018-10-12T03:57:44.112Z,40.17
2018-10-12T04:00:12.980Z,46.63
2018-10-12T04:02:41.335Z,35.13
2018-10-12T04:05:10.227Z,33.13
2018-10-12T04:07:39.137Z,37.07
2018-10-12T04:10:07.482Z,46.20
2018-10-12T04:12:36.341Z,32.77
2018-10-12T04:15:04.616Z,36.50
2018-10-12T04:17:32.919Z,31.90
2018-10-12T04:20:01.541Z,38.33
2018-10-12T04:22:29.861Z,47.00
2018-10-12T04:24:58.442Z,49.43
2018-10-12T04:27:27.436Z,36.63
2018-10-12T04:29:55.863Z,34.30
2018-10-12T04:32:24.206Z,33.40
2018-10-12T04:34:52.930Z,37.57
2018-10-12T04:37:21.278Z,34.23
2018-10-12T04:40:00.069Z,33.10
2018-10-12T04:42:28.507Z,30.37
2018-10-12T04:44:57.651Z,29.63
2018-10-12T04:47:29.899Z,28.20
2018-10-12T04:49:59.360Z,28.40
2018-10-12T04:52:29.389Z,30.17
2018-10-12T04:54:58.349Z,35.40
2018-10-12T04:57:26.663Z,35.70
2018-10-12T04:59:55.097Z,36.23
2018-10-12T05:02:24.428Z,41.40
2018-10-12T05:04:52.771Z,43.63
2018-10-12T05:07:21.501Z,36.97
2018-10-12T05:09:50.438Z,34.87
2018-10-12T05:12:19.081Z,39.23
2018-10-12T05:14:47.552Z,43.70
2018-10-12T05:17:16.312Z,56.77
2018-10-12T05:19:44.909Z,40.00
2018-10-12T05:22:13.269Z,39.80
2018-10-12T05:24:41.954Z,52.67
2018-10-12T05:27:10.608Z,81.50
2018-10-12T05:29:38.960Z,80.93
2018-10-12T05:32:07.762Z,82.57
2018-10-12T05:34:36.056Z,80.30
2018-10-12T05:37:04.363Z,65.63
2018-10-12T05:39:33.129Z,65.03
2018-10-12T05:42:01.462Z,79.27
2018-10-12T05:44:30.149Z,75.77
2018-10-12T05:46:58.695Z,52.13
2018-10-12T05:49:38.661Z,48.27
2018-10-12T05:52:07.481Z,63.70
2018-10-12T05:54:35.895Z,39.70
2018-10-12T05:57:04.240Z,39.10
2018-10-12T05:59:33.058Z,38.93
2018-10-12T06:02:01.675Z,38.53
2018-10-12T06:04:30.771Z,37.13
2018-10-12T06:06:59.724Z,35.50
2018-10-12T06:09:28.183Z,35.40
2018-10-12T06:11:56.490Z,36.90
2018-10-12T06:14:25.001Z,32.80
2018-10-12T06:16:53.443Z,34.23
2018-10-12T06:19:21.821Z,33.90
2018-10-12T06:21:50.644Z,32.60
2018-10-12T06:24:19.000Z,32.83
2018-10-12T06:26:47.913Z,31.27
2018-10-12T06:29:16.485Z,33.97
2018-10-12T06:31:44.831Z,32.57
2018-10-12T06:34:13.405Z,30.53
2018-10-12T06:36:41.900Z,30.77
2018-10-12T06:39:10.230Z,31.57
2018-10-12T06:41:39.226Z,32.77
2018-10-12T06:44:07.852Z,32.93
2018-10-12T06:46:36.246Z,30.47
2018-10-12T06:49:04.591Z,30.60
2018-10-12T06:51:33.307Z,32.97
2018-10-12T06:54:01.683Z,32.13
2018-10-12T06:56:30.396Z,34.77
2018-10-12T06:58:59.155Z,33.63
2018-10-12T07:01:28.153Z,32.47
2018-10-12T07:03:56.517Z,32.63
2018-10-12T07:06:25.892Z,31.07
2018-10-12T07:08:54.230Z,31.40
2018-10-12T07:11:23.109Z,31.20
2018-10-12T07:13:52.145Z,29.87
2018-10-12T07:16:20.738Z,29.37
2018-10-12T07:18:49.877Z,33.00
2018-10-12T07:21:18.546Z,32.20
2018-10-12T07:23:47.303Z,33.13
2018-10-12T07:26:15.642Z,32.73
2018-10-12T07:28:44.714Z,30.60
2018-10-12T07:31:13.203Z,28.67
2018-10-12T07:33:41.574Z,28.60
2018-10-12T07:36:10.521Z,31.10
2018-10-12T07:38:38.851Z,30.60
2018-10-12T07:41:07.841Z,29.80
2018-10-12T07:43:36.578Z,32.20
2018-10-12T07:46:04.934Z,31.53
2018-10-12T07:48:33.582Z,30.60
2018-10-12T07:51:01.893Z,27.63
2018-10-12T07:53:30.256Z,30.53
2018-10-12T07:55:58.941Z,30.23
2018-10-12T07:58:27.779Z,31.90
2018-10-12T08:00:56.096Z,30.57
2018-10-12T08:03:24.790Z,30.40
2018-10-12T08:05:53.688Z,29.37
2018-10-12T08:08:22.242Z,29.13
2018-10-12T08:10:51.301Z,30.63
2018-10-12T08:13:20.216Z,29.83
2018-10-12T08:15:49.443Z,27.67
2018-10-12T08:18:17.812Z,31.97
2018-10-12T08:20:46.537Z,30.43
2018-10-12T08:23:15.200Z,28.70
2018-10-12T08:25:43.527Z,27.77
2018-10-12T08:28:12.293Z,26.37
2018-10-12T08:30:40.628Z,26.00
2018-10-12T08:33:09.060Z,24.57
2018-10-12T08:35:38.389Z,24.63
2018-10-12T08:38:07.112Z,24.40
2018-10-12T08:40:35.475Z,21.87
2018-10-12T08:43:04.207Z,24.67
2018-10-12T08:45:32.561Z,22.77
2018-10-12T08:48:01.463Z,23.13
2018-10-12T08:50:30.297Z,23.23
2018-10-12T08:52:58.651Z,23.37
2018-10-12T08:55:27.272Z,22.77
2018-10-12T08:57:56.136Z,23.50
2018-10-12T09:00:24.862Z,24.07
2018-10-12T09:02:53.255Z,23.33
2018-10-12T09:05:21.756Z,22.97
2018-10-12T09:07:50.064Z,22.97
2018-10-12T09:10:18.509Z,22.80
2018-10-12T09:12:47.247Z,22.03
2018-10-12T09:15:16.088Z,22.97
2018-10-12T09:17:44.421Z,22.57
2018-10-12T09:20:13.468Z,22.23
2018-10-12T09:22:42.143Z,22.67
2018-10-12T09:25:10.470Z,22.10
2018-10-12T09:27:39.726Z,21.70
2018-10-12T09:30:08.137Z,20.27
2018-10-12T09:32:36.424Z,21.23
2018-10-12T09:35:05.306Z,22.47
2018-10-12T09:37:33.941Z,22.13
2018-10-12T09:40:02.368Z,21.13
2018-10-12T09:42:31.306Z,22.33
2018-10-12T09:44:59.620Z,21.70
2018-10-12T09:47:28.169Z,21.80
2018-10-12T09:49:56.748Z,21.63
2018-10-12T09:52:25.121Z,21.73
2018-10-12T09:54:53.414Z,22.27
2018-10-12T09:57:25.959Z,21.30
2018-10-12T09:59:54.635Z,20.23
2018-10-12T10:02:28.501Z,21.13
2018-10-12T10:05:01.879Z,20.90
2018-10-12T10:07:30.297Z,21.60
2018-10-12T10:09:59.112Z,18.93
2018-10-12T10:12:27.488Z,22.23
2018-10-12T10:14:55.823Z,20.77
2018-10-12T10:17:24.553Z,20.93
2018-10-12T10:19:53.302Z,20.40
2018-10-12T10:22:21.665Z,21.97
2018-10-12T10:24:50.604Z,20.17
2018-10-12T10:27:19.155Z,20.97
2018-10-12T10:29:47.692Z,21.40
2018-10-12T10:32:16.410Z,22.03
2018-10-12T10:34:44.710Z,21.93
2018-10-12T10:37:13.079Z,22.40
2018-10-12T10:39:42.155Z,23.13
2018-10-12T10:42:10.646Z,23.60
2018-10-12T10:44:38.995Z,22.03
2018-10-12T10:47:07.727Z,23.93
2018-10-12T10:49:36.060Z,24.67
2018-10-12T10:52:04.597Z,22.63
2018-10-12T10:54:33.533Z,26.40
2018-10-12T10:57:05.986Z,24.40
2018-10-12T10:59:36.324Z,24.37
2018-10-12T11:02:04.680Z,21.63
2018-10-12T11:04:34.223Z,24.03
2018-10-12T11:07:03.469Z,22.63
2018-10-12T11:09:32.144Z,19.90
2018-10-12T11:12:00.472Z,22.93
2018-10-12T11:14:29.582Z,24.60
2018-10-12T11:16:57.903Z,24.67
2018-10-12T11:19:26.840Z,23.67
2018-10-12T11:21:55.324Z,23.67
2018-10-12T11:24:23.708Z,23.53
2018-10-12T11:26:52.362Z,24.17
2018-10-12T11:29:20.915Z,23.23
2018-10-12T11:31:49.418Z,22.53
2018-10-12T11:34:18.348Z,22.23
2018-10-12T11:36:47.200Z,22.47
2018-10-12T11:39:16.118Z,22.53
2018-10-12T11:41:44.662Z,22.30
2018-10-12T11:44:13.446Z,22.03
2018-10-12T11:46:42.132Z,23.73
2018-10-12T11:49:10.549Z,22.97
2018-10-12T11:51:39.485Z,21.07
2018-10-12T11:54:08.079Z,22.40
2018-10-12T11:56:36.602Z,19.43
2018-10-12T11:59:05.546Z,22.23
2018-10-12T12:01:34.168Z,22.40
2018-10-12T12:04:02.500Z,21.60
2018-10-12T12:06:31.211Z,21.80
2018-10-12T12:08:59.619Z,21.67
2018-10-12T12:11:28.060Z,20.87
2018-10-12T12:13:56.937Z,21.13
2018-10-12T12:16:25.191Z,19.87
2018-10-12T12:18:53.538Z,20.43
2018-10-12T12:21:22.554Z,22.13
2018-10-12T12:23:50.862Z,23.83
2018-10-12T12:26:19.481Z,20.63
2018-10-12T12:28:48.234Z,21.20
2018-10-12T12:31:16.601Z,20.63
2018-10-12T12:33:45.224Z,20.33
2018-10-12T12:36:14.773Z,20.00
2018-10-12T12:38:44.066Z,21.80
2018-10-12T12:41:13.280Z,20.67
2018-10-12T12:43:42.999Z,22.87
2018-10-12T12:46:11.733Z,21.70
2018-10-12T12:48:40.386Z,21.77
2018-10-12T12:51:08.975Z,23.40
2018-10-12T12:53:37.631Z,22.00
2018-10-12T12:56:06.184Z,22.27
2018-10-12T12:58:34.710Z,22.07
2018-10-12T13:01:03.032Z,22.80
2018-10-12T13:03:31.326Z,21.40
2018-10-12T13:05:59.991Z,21.53
2018-10-12T13:08:28.625Z,23.03
2018-10-12T13:10:57.002Z,21.37
2018-10-12T13:13:26.104Z,21.80
2018-10-12T13:15:54.421Z,22.13
2018-10-12T13:18:22.866Z,23.47
2018-10-12T13:20:51.895Z,23.20
2018-10-12T13:23:20.437Z,22.07
2018-10-12T13:25:48.818Z,22.63
2018-10-12T13:28:17.611Z,20.90
2018-10-12T13:30:46.211Z,24.17
2018-10-12T13:33:14.874Z,23.27
2018-10-12T13:35:43.471Z,22.13
2018-10-12T13:38:11.791Z,19.80
2018-10-12T13:40:41.022Z,21.83
2018-10-12T13:43:09.535Z,21.70
2018-10-12T13:45:37.924Z,24.60
2018-10-12T13:48:06.801Z,23.77
2018-10-12T13:50:36.020Z,22.20
2018-10-12T13:53:04.479Z,23.30
2018-10-12T13:55:32.925Z,23.70
2018-10-12T13:58:01.649Z,23.13
2018-10-12T14:00:30.313Z,23.60
2018-10-12T14:02:59.156Z,23.67
2018-10-12T14:05:27.663Z,24.10
2018-10-12T14:07:55.982Z,24.37
2018-10-12T14:10:24.964Z,24.23
2018-10-12T14:12:53.605Z,23.33
2018-10-12T14:15:22.601Z,24.13
2018-10-12T14:17:50.980Z,24.53
2018-10-12T14:20:19.962Z,24.00
2018-10-12T14:22:48.650Z,23.43
2018-10-12T14:25:16.992Z,24.63
2018-10-12T14:27:45.760Z,23.33
2018-10-12T14:30:14.443Z,25.83
2018-10-12T14:32:42.980Z,24.60
2018-10-12T14:35:11.480Z,25.23
2018-10-12T14:37:40.178Z,24.73
2018-10-12T14:40:08.839Z,24.83
2018-10-12T14:42:37.811Z,27.73
2018-10-12T14:45:06.859Z,25.27
2018-10-12T14:47:35.319Z,25.93
2018-10-12T14:50:04.199Z,25.37
2018-10-12T14:52:32.526Z,25.87
2018-10-12T14:55:00.883Z,25.20
2018-10-12T14:57:29.561Z,27.03
2018-10-12T14:59:58.233Z,25.20
2018-10-12T15:02:26.846Z,25.37
2018-10-12T15:04:55.810Z,26.70
2018-10-12T15:07:24.167Z,25.50
2018-10-12T15:09:52.631Z,26.03
2018-10-12T15:12:21.777Z,27.40
2018-10-12T15:15:01.360Z,23.57
2018-10-12T15:17:30.289Z,25.53
2018-10-12T15:19:58.617Z,25.30
2018-10-12T15:22:27.099Z,26.43
2018-10-12T15:24:55.899Z,27.07
2018-10-12T15:27:24.281Z,26.70
2018-10-12T15:29:52.920Z,25.63
2018-10-12T15:32:21.507Z,25.60
2018-10-12T15:34:49.845Z,25.10
2018-10-12T15:37:18.420Z,26.50
2018-10-12T15:39:46.987Z,26.53
2018-10-12T15:42:15.343Z,27.03
2018-10-12T15:44:43.710Z,26.90
2018-10-12T15:47:12.354Z,27.27
2018-10-12T15:49:40.697Z,28.13
2018-10-12T15:52:09.335Z,28.67
2018-10-12T15:54:37.959Z,27.27
2018-10-12T15:57:06.703Z,27.83
2018-10-12T15:59:35.473Z,28.03
2018-10-12T16:02:04.200Z,27.17
2018-10-12T16:04:32.570Z,26.70
2018-10-12T16:07:01.336Z,28.57
2018-10-12T16:09:30.070Z,27.73
2018-10-12T16:11:58.399Z,26.43
2018-10-12T16:14:27.501Z,28.20
2018-10-12T16:16:56.438Z,29.60
2018-10-12T16:19:24.770Z,29.30
2018-10-12T16:21:53.569Z,30.73
2018-10-12T16:24:22.510Z,29.63
2018-10-12T16:26:51.190Z,29.30
2018-10-12T16:29:19.828Z,27.60
2018-10-12T16:31:48.433Z,28.43
2018-10-12T16:34:16.888Z,31.03
2018-10-12T16:36:45.328Z,27.43
2018-10-12T16:39:14.031Z,31.00
2018-10-12T16:41:42.368Z,28.87
2018-10-12T16:44:10.996Z,29.03
2018-10-12T16:46:39.570Z,29.97
2018-10-12T16:49:08.027Z,30.10
2018-10-12T16:51:36.786Z,32.87
2018-10-12T16:54:05.475Z,32.63
2018-10-12T16:56:33.856Z,31.03
2018-10-12T16:59:02.350Z,30.67
2018-10-12T17:01:31.224Z,31.90
2018-10-12T17:03:59.585Z,29.00
2018-10-12T17:06:28.246Z,31.00
2018-10-12T17:08:56.991Z,32.50
2018-10-12T17:11:25.308Z,33.40
2018-10-12T17:13:53.839Z,29.73
2018-10-12T17:16:23.702Z,30.43
2018-10-12T17:18:52.196Z,31.20
2018-10-12T17:21:20.891Z,29.97
2018-10-12T17:23:49.717Z,32.20
2018-10-12T17:26:18.019Z,32.67
2018-10-12T17:28:46.811Z,33.03
2018-10-12T17:31:15.750Z,32.57
2018-10-12T17:33:44.501Z,31.13
2018-10-12T17:36:12.870Z,33.73
2018-10-12T17:38:42.051Z,35.00
2018-10-12T17:41:13.781Z,32.87
2018-10-12T17:43:42.484Z,34.83
2018-10-12T17:46:10.961Z,35.30
2018-10-12T17:48:39.983Z,35.60
2018-10-12T17:51:09.698Z,33.30
2018-10-12T17:53:38.574Z,36.93
2018-10-12T17:56:07.516Z,34.63
2018-10-12T17:58:36.336Z,33.90
2018-10-12T18:01:05.425Z,35.97
2018-10-12T18:03:34.170Z,35.80
2018-10-12T18:06:03.883Z,34.73
2018-10-12T18:08:32.463Z,34.77
2018-10-12T18:11:01.128Z,33.37
2018-10-12T18:13:29.658Z,34.37
2018-10-12T18:15:58.019Z,32.97
2018-10-12T18:18:26.490Z,34.33
2018-10-12T18:20:55.293Z,35.63
2018-10-12T18:23:23.634Z,33.70
2018-10-12T18:25:52.422Z,34.50
2018-10-12T18:28:21.380Z,35.10
2018-10-12T18:30:49.710Z,36.27
2018-10-12T18:33:18.030Z,36.57
2018-10-12T18:35:46.577Z,33.27
2018-10-12T18:38:15.139Z,34.60
2018-10-12T18:40:43.564Z,35.80
2018-10-12T18:43:12.424Z,35.37
2018-10-12T18:45:40.717Z,34.50
2018-10-12T18:48:09.151Z,37.33
2018-10-12T18:50:38.692Z,37.33
2018-10-12T18:53:07.042Z,34.70
2018-10-12T18:55:35.400Z,35.00
2018-10-12T18:58:03.832Z,34.93
2018-10-12T19:00:32.434Z,35.17
2018-10-12T19:03:01.031Z,36.97
2018-10-12T19:05:29.803Z,37.80
2018-10-12T19:07:58.438Z,36.10
2018-10-12T19:10:27.126Z,34.63
2018-10-12T19:12:56.193Z,34.07
2018-10-12T19:15:24.524Z,35.07
2018-10-12T19:17:53.136Z,34.43
2018-10-12T19:20:22.080Z,33.07
2018-10-12T19:22:50.762Z,32.27
2018-10-12T19:25:19.356Z,34.57
2018-10-12T19:27:48.234Z,33.47
2018-10-12T19:30:16.588Z,35.63
2018-10-12T19:32:45.004Z,33.00
2018-10-12T19:35:13.933Z,33.90
2018-10-12T19:37:42.416Z,35.30
2018-10-12T19:40:10.974Z,36.80
2018-10-12T19:42:39.572Z,30.90
2018-10-12T19:45:07.986Z,32.77
2018-10-12T19:47:36.337Z,34.30
2018-10-12T19:50:05.356Z,35.23
2018-10-12T19:52:33.675Z,35.43
2018-10-12T19:55:02.019Z,33.33
2018-10-12T19:57:30.866Z,34.47
2018-10-12T19:59:59.276Z,34.83
2018-10-12T20:02:27.639Z,33.37
2018-10-12T20:04:56.027Z,33.50
2018-10-12T20:07:24.409Z,35.53
2018-10-12T20:09:52.903Z,33.40
2018-10-12T20:12:21.236Z,36.53
2018-10-12T20:14:49.553Z,36.63
2018-10-12T20:17:17.914Z,39.23
2018-10-12T20:19:46.443Z,35.43
2018-10-12T20:22:15.666Z,35.47
2018-10-12T20:24:43.993Z,39.27
2018-10-12T20:27:12.501Z,36.73
2018-10-12T20:29:40.890Z,37.40
2018-10-12T20:32:09.257Z,37.63
2018-10-12T20:34:38.224Z,35.50
2018-10-12T20:37:06.939Z,38.40
2018-10-12T20:39:35.269Z,38.33
2018-10-12T20:42:04.436Z,36.93
2018-10-12T20:44:32.769Z,36.90
2018-10-12T20:47:01.063Z,38.73
2018-10-12T20:49:30.279Z,39.20
2018-10-12T20:51:58.617Z,41.00
2018-10-12T20:54:27.224Z,39.70
2018-10-12T20:56:55.899Z,39.47
2018-10-12T20:59:24.972Z,38.83
2018-10-12T21:01:53.490Z,38.67
2018-10-12T21:04:21.930Z,40.77
2018-10-12T21:06:50.269Z,39.07
2018-10-12T21:09:18.579Z,40.47
2018-10-12T21:11:47.342Z,39.80
2018-10-12T21:14:15.704Z,37.27
2018-10-12T21:16:44.060Z,39.47
2018-10-12T21:19:12.463Z,39.23
2018-10-12T21:21:40.797Z,40.50
2018-10-12T21:24:09.713Z,40.30
2018-10-12T21:26:38.274Z,42.27
2018-10-12T21:29:06.986Z,40.17
2018-10-12T21:31:35.303Z,41.27
2018-10-12T21:34:03.658Z,41.23
2018-10-12T21:36:32.007Z,41.73
2018-10-12T21:39:00.354Z,39.37
2018-10-12T21:41:29.220Z,40.77
2018-10-12T21:43:57.583Z,39.10
2018-10-12T21:46:25.930Z,40.63
2018-10-12T21:48:54.533Z,41.77
2018-10-12T21:51:22.974Z,42.20
2018-10-12T21:53:51.525Z,39.93
2018-10-12T21:56:20.656Z,40.07
2018-10-12T21:58:49.179Z,42.07
2018-10-12T22:01:17.462Z,39.37
2018-10-12T22:03:46.098Z,40.53
2018-10-12T22:06:14.531Z,39.93
2018-10-12T22:08:48.269Z,37.67
2018-10-12T22:11:16.796Z,37.07
2018-10-12T22:13:45.161Z,42.23
2018-10-12T22:16:13.503Z,38.70
2018-10-12T22:18:42.231Z,39.50
2018-10-12T22:21:10.595Z,42.80
2018-10-12T22:23:39.049Z,38.27
2018-10-12T22:26:07.954Z,38.97
2018-10-12T22:28:36.284Z,39.83
2018-10-12T22:31:04.658Z,44.27
2018-10-12T22:33:32.998Z,46.33
2018-10-12T22:36:01.294Z,41.57
2018-10-12T22:38:29.822Z,45.03
2018-10-12T22:40:58.781Z,47.70
2018-10-12T22:43:27.195Z,48.03
2018-10-12T22:45:55.696Z,44.77
2018-10-12T22:48:24.674Z,46.97
2018-10-12T22:50:53.012Z,45.57
2018-10-12T22:53:21.383Z,47.50
2018-10-12T22:55:49.719Z,45.60
2018-10-12T22:58:18.038Z,45.23
2018-10-12T23:00:46.402Z,44.10
2018-10-12T23:03:14.705Z,42.70
2018-10-12T23:05:43.035Z,42.73
2018-10-12T23:08:11.709Z,43.03
2018-10-12T23:10:40.395Z,42.50
2018-10-12T23:13:09.384Z,42.13
2018-10-12T23:15:38.047Z,44.73
2018-10-12T23:18:06.852Z,42.63
2018-10-12T23:20:35.198Z,42.73
2018-10-12T23:23:03.547Z,43.27
2018-10-12T23:25:31.921Z,47.27
2018-10-12T23:28:00.231Z,44.50
2018-10-12T23:30:28.651Z,44.33
2018-10-12T23:33:08.584Z,46.93
2018-10-12T23:35:37.174Z,45.53
2018-10-12T23:38:05.515Z,45.90
2018-10-12T23:40:33.889Z,47.80
2018-10-12T23:43:02.372Z,45.23
2018-10-12T23:45:30.867Z,43.77
2018-10-12T23:47:59.214Z,47.97
2018-10-12T23:50:27.569Z,48.37
2018-10-12T23:52:55.897Z,51.27
2018-10-12T23:55:24.664Z,49.57
2018-10-12T23:57:53.027Z,50.17
